createdAt,value
2022-12-20T00:49:55.705Z,-0.92
2022-12-20T00:52:22.284Z,-0.48
2022-12-20T00:54:48.842Z,-0.22
2022-12-20T00:57:15.408Z,-1.11
2022-12-20T00:59:42.041Z,-0.80
2022-12-20T01:24:21.280Z,-0.50
2022-12-20T01:26:48.185Z,-0.89
2022-12-20T01:29:15.342Z,-1.38
2022-12-20T01:35:57.641Z,-0.53
2022-12-20T01:38:24.530Z,-0.51
2022-12-20T01:55:47.974Z,0.04
2022-12-20T01:58:18.784Z,-0.78
2022-12-20T02:01:16.200Z,-0.63
2022-12-20T02:04:43.534Z,0.14
2022-12-20T02:07:17.529Z,0.02
2022-12-20T02:09:44.998Z,-0.02
2022-12-20T02:12:13.238Z,0.14
2022-12-20T02:15:04.615Z,0.47
2022-12-20T02:17:31.130Z,0.34
2022-12-20T02:20:57.588Z,0.63
2022-12-20T02:23:36.269Z,-0.13
2022-12-20T02:26:02.755Z,0.18
2022-12-20T02:28:50.793Z,0.06
2022-12-20T02:35:24.048Z,-0.08
2022-12-20T02:43:42.233Z,-0.45
2022-12-20T02:46:11.655Z,-0.60
2022-12-20T02:48:39.641Z,-0.61
2022-12-20T03:26:21.567Z,-0.14
2022-12-20T03:28:48.161Z,0.30
2022-12-20T03:31:15.399Z,-0.45
2022-12-20T03:33:42.413Z,0.00
2022-12-20T03:36:09.137Z,-0.26
2022-12-20T03:38:35.740Z,-0.13
2022-12-20T03:45:15.976Z,-0.52
2022-12-20T03:48:02.544Z,-0.37
2022-12-20T03:50:29.762Z,-0.18
2022-12-20T03:52:56.414Z,0.14
2022-12-20T03:55:23.311Z,0.36
2022-12-20T04:17:25.732Z,0.11
2022-12-20T04:19:52.293Z,0.03
2022-12-20T04:22:18.920Z,0.15
2022-12-20T04:29:23.196Z,0.24
2022-12-20T04:31:49.836Z,0.22
2022-12-20T04:34:36.367Z,-0.16
2022-12-20T04:37:03.009Z,0.31
2022-12-20T04:39:34.544Z,0.35
2022-12-20T04:42:21.163Z,0.43
2022-12-20T05:44:30.795Z,0.11
2022-12-20T05:46:57.388Z,0.49
2022-12-20T05:49:24.076Z,0.29
2022-12-20T05:51:50.642Z,-0.21
2022-12-20T05:54:17.225Z,-0.30
2022-12-20T05:56:43.811Z,-0.02
2022-12-20T05:59:10.414Z,-0.32
2022-12-20T06:01:37.219Z,-0.25
2022-12-20T06:04:04.193Z,-0.70
2022-12-20T06:06:30.931Z,-0.10
2022-12-20T06:08:57.580Z,-0.28
2022-12-20T06:11:29.620Z,-0.87
2022-12-20T06:13:57.036Z,-0.81
2022-12-20T06:16:23.764Z,-0.14
2022-12-20T06:18:50.421Z,-0.73
2022-12-20T06:21:16.962Z,-0.68
2022-12-20T06:23:43.565Z,-0.50
2022-12-20T06:26:10.211Z,-0.29
2022-12-20T06:28:42.700Z,-0.29
2022-12-20T06:31:11.163Z,-0.37
2022-12-20T06:33:38.042Z,-0.16
2022-12-20T06:36:05.063Z,-0.14
2022-12-20T06:38:31.719Z,-0.17
2022-12-20T06:40:58.426Z,0.11
2022-12-20T06:43:25.133Z,-0.77
2022-12-20T06:45:51.904Z,-0.25
2022-12-20T06:48:18.584Z,-0.11
2022-12-20T06:50:48.061Z,-0.08
2022-12-20T06:53:18.762Z,-0.06
2022-12-20T06:55:47.735Z,-0.12
2022-12-20T06:58:14.347Z,0.18
2022-12-20T07:00:40.905Z,-0.05
2022-12-20T07:03:07.752Z,-0.38
2022-12-20T07:05:34.495Z,-0.23
2022-12-20T07:08:02.849Z,-0.23
2022-12-20T07:10:29.471Z,0.12
2022-12-20T07:12:56.285Z,-0.02
2022-12-20T07:15:22.936Z,0.22
2022-12-20T07:17:49.543Z,-0.18
2022-12-20T07:20:16.776Z,-0.10
2022-12-20T07:22:43.784Z,0.21
2022-12-20T07:25:11.113Z,0.30
2022-12-20T07:27:37.784Z,-0.20
2022-12-20T07:30:05.234Z,-0.22
2022-12-20T07:32:32.192Z,-0.23
2022-12-20T07:34:59.126Z,0.12
2022-12-20T07:37:25.802Z,-0.63
2022-12-20T07:39:52.407Z,-0.31
2022-12-20T07:42:18.979Z,0.12
2022-12-20T07:44:45.570Z,-0.35
2022-12-20T07:47:12.132Z,0.07
2022-12-20T07:49:38.950Z,0.04
2022-12-20T07:52:08.511Z,0.31
2022-12-20T07:54:38.205Z,0.23
2022-12-20T07:57:12.527Z,0.31
2022-12-20T07:59:46.833Z,0.72
2022-12-20T08:02:20.699Z,0.80
2022-12-20T08:04:48.337Z,0.25
2022-12-20T08:07:14.999Z,0.33
2022-12-20T08:09:44.229Z,0.73
2022-12-20T08:12:15.925Z,1.01
2022-12-20T08:14:43.092Z,0.82
2022-12-20T08:17:10.271Z,0.68
2022-12-20T08:19:36.898Z,0.29
2022-12-20T08:22:03.863Z,0.21
2022-12-20T08:27:05.698Z,0.11
2022-12-20T08:29:32.265Z,0.26
2022-12-20T08:32:10.809Z,0.13
2022-12-20T08:34:37.432Z,0.18
2022-12-20T08:37:07.804Z,0.40
2022-12-20T10:19:52.434Z,1.87
2022-12-20T10:22:22.436Z,1.94
2022-12-20T10:25:24.044Z,2.12
2022-12-20T10:27:55.343Z,1.93
2022-12-20T10:30:27.613Z,1.61
2022-12-20T10:37:01.485Z,1.86
2022-12-20T10:57:42.130Z,2.99
2022-12-20T11:00:29.796Z,3.20
2022-12-20T11:05:31.783Z,3.35
2022-12-20T11:08:38.093Z,3.44
2022-12-20T11:11:43.318Z,3.43
2022-12-20T11:14:15.189Z,3.47
2022-12-20T11:16:45.977Z,3.50
2022-12-20T11:19:38.870Z,3.08
2022-12-20T11:22:53.837Z,2.91
2022-12-20T11:45:14.931Z,3.35
2022-12-20T11:48:09.865Z,3.60
2022-12-20T11:50:42.817Z,3.42
2022-12-20T11:53:53.705Z,2.96
2022-12-20T13:29:23.451Z,3.08
2022-12-20T13:31:54.351Z,2.92
2022-12-20T13:34:55.652Z,3.00
2022-12-20T13:37:29.645Z,3.24
2022-12-20T13:39:57.767Z,3.05
2022-12-20T14:10:29.169Z,3.05
2022-12-20T14:12:56.123Z,2.64
2022-12-20T14:15:25.804Z,3.29
2022-12-20T14:17:52.447Z,2.93
2022-12-20T14:20:50.375Z,2.91
2022-12-20T19:31:37.411Z,0.61
2022-12-20T19:34:10.592Z,0.77
2022-12-20T19:36:40.584Z,1.19
2022-12-20T19:39:12.313Z,0.98
2022-12-20T20:59:49.879Z,1.61
2022-12-20T21:02:16.737Z,1.26
2022-12-20T21:04:59.301Z,1.83
2022-12-20T21:12:56.437Z,1.75
2022-12-20T21:15:27.768Z,1.55
2022-12-20T21:18:01.348Z,1.53
2022-12-20T21:20:27.904Z,1.25
2022-12-20T21:22:55.157Z,1.68
2022-12-20T21:25:21.795Z,1.13
2022-12-20T21:27:50.721Z,1.29
2022-12-20T21:30:21.181Z,1.26
2022-12-20T21:44:38.915Z,1.13
2022-12-20T21:52:16.232Z,1.23
2022-12-20T21:54:43.236Z,1.26
2022-12-20T21:57:11.001Z,0.46
2022-12-20T21:59:38.132Z,0.77
2022-12-20T22:02:05.433Z,0.96
2022-12-20T22:07:07.490Z,0.97
2022-12-20T22:09:37.031Z,0.96
2022-12-20T22:12:25.222Z,0.43
2022-12-20T22:14:51.782Z,0.84
2022-12-20T22:17:40.333Z,1.01
2022-12-20T22:20:24.803Z,1.40
2022-12-20T22:25:36.481Z,1.38
2022-12-20T22:30:58.937Z,1.98
2022-12-20T22:36:01.206Z,2.04
2022-12-20T22:41:30.308Z,1.35
2022-12-20T22:46:32.784Z,1.99
2022-12-20T22:54:41.575Z,1.43
2022-12-20T22:59:50.032Z,1.52
2022-12-20T23:02:16.936Z,1.90
2022-12-20T23:05:09.166Z,1.60
2022-12-20T23:07:35.836Z,1.90
2022-12-20T23:10:02.483Z,1.42
2022-12-20T23:12:50.857Z,1.32
2022-12-20T23:15:36.116Z,1.50
2022-12-20T23:28:37.041Z,1.85
2022-12-20T23:31:04.980Z,1.59
2022-12-20T23:37:02.785Z,2.16
2022-12-20T23:39:29.332Z,1.94
2022-12-20T23:41:55.889Z,0.94
2022-12-20T23:44:22.539Z,0.75
2022-12-20T23:46:49.120Z,0.77
2022-12-20T23:49:15.829Z,0.85
2022-12-20T23:54:21.627Z,1.33
2022-12-20T23:56:48.845Z,1.52
2022-12-20T23:59:15.678Z,1.39
